Saltcoats, Canada
Current Conditions -  °F | °C
As of 10:20 PM on Wednesday 22 Oct 2014 (Local Time) from CYQV Reporting Station
Overcast Overcast  
Wind Chill: 50°   Ceiling: 2300
Heat Index: 50°   Visibility: 9mi
Dew Point: 46°   Wind: 9mph
Humidity: 87%   Direction: 250°WSW
Pressure: 29.72"   Gusts: NA
Location:  51.04°N, 102.16°W
Report Text: CYQV 230420Z AUTO 25008KT 9SM SCT017 BKN023 BKN041 OVC072 10/08 A2972 RMK SLP076
Loading
Personal Weather Stations






























Interactive Weather Map
Tropical Storm Tracking
New forecast layout! Learn more

10-Day Weather Forecast

Advertisements
Track Severe Weather on mobile